createdAt,value
2024-02-26T00:02:16.389Z,7.90
2024-02-26T00:05:05.392Z,7.20
2024-02-26T00:08:06.478Z,8.80
2024-02-26T00:11:07.449Z,7.80
2024-02-26T00:14:08.460Z,7.90
2024-02-26T00:17:09.446Z,7.90
2024-02-26T00:20:12.444Z,6.70
2024-02-26T00:23:13.394Z,6.70
2024-02-26T00:26:14.416Z,7.70
2024-02-26T00:29:15.454Z,6.80
2024-02-26T00:32:16.451Z,6.80
2024-02-26T00:35:17.495Z,8.10
2024-02-26T00:38:18.460Z,7.30
2024-02-26T00:41:19.482Z,6.90
2024-02-26T00:44:20.467Z,6.90
2024-02-26T00:47:21.557Z,8.00
2024-02-26T00:50:22.528Z,8.10
2024-02-26T00:53:23.508Z,8.40
2024-02-26T00:56:24.553Z,8.10
2024-02-26T00:59:25.640Z,9.00
2024-02-26T01:02:26.595Z,8.90
2024-02-26T01:05:28.556Z,6.40
2024-02-26T01:08:29.557Z,8.00
2024-02-26T01:11:30.605Z,9.90
2024-02-26T01:14:31.543Z,7.80
2024-02-26T01:17:32.499Z,7.60
2024-02-26T01:20:33.595Z,7.90
2024-02-26T01:23:34.575Z,7.00
2024-02-26T01:26:35.553Z,9.40
2024-02-26T01:29:36.696Z,7.20
2024-02-26T01:32:37.678Z,8.50
2024-02-26T01:35:38.636Z,8.70
2024-02-26T01:38:39.644Z,10.30
2024-02-26T01:41:41.830Z,9.30
2024-02-26T01:44:42.654Z,8.60
2024-02-26T01:47:46.959Z,9.00
2024-02-26T01:50:49.672Z,8.30
2024-02-26T01:53:50.636Z,7.50
2024-02-26T01:56:54.746Z,11.40
2024-02-26T01:59:56.712Z,8.60
2024-02-26T02:03:00.698Z,8.20
2024-02-26T02:06:02.056Z,8.10
2024-02-26T02:09:02.718Z,6.60
2024-02-26T02:12:03.805Z,6.70
2024-02-26T02:15:04.721Z,7.70
2024-02-26T02:18:05.880Z,6.40
2024-02-26T02:21:08.703Z,7.00
2024-02-26T04:54:04.099Z,6.30
2024-02-26T04:57:05.000Z,4.60
2024-02-26T05:00:06.020Z,4.40
2024-02-26T05:03:07.049Z,4.30
2024-02-26T05:06:08.083Z,4.40
2024-02-26T05:09:09.031Z,3.80
2024-02-26T05:12:10.016Z,4.60
2024-02-26T05:15:11.090Z,4.20
2024-02-26T05:18:12.076Z,5.60
2024-02-26T05:21:13.054Z,4.10
2024-02-26T05:24:14.112Z,4.50
2024-02-26T05:27:15.074Z,4.00
2024-02-26T05:30:17.172Z,4.10
2024-02-26T05:33:19.097Z,4.00
2024-02-26T05:36:20.138Z,4.30
2024-02-26T05:39:21.440Z,3.60
2024-02-26T05:42:22.062Z,4.00
2024-02-26T05:45:23.171Z,3.50
2024-02-26T05:48:26.187Z,4.10
2024-02-26T05:51:27.217Z,4.30
2024-02-26T05:54:28.273Z,3.50
2024-02-26T05:57:29.162Z,4.30
2024-02-26T06:00:30.276Z,4.10
2024-02-26T06:03:32.277Z,3.20
2024-02-26T06:06:34.364Z,4.90
2024-02-26T06:09:37.114Z,4.50
2024-02-26T06:15:40.126Z,5.10
2024-02-26T06:18:41.598Z,4.20
2024-02-26T06:21:43.141Z,3.10
2024-02-26T06:24:44.167Z,3.50
2024-02-26T06:27:45.203Z,5.10
2024-02-26T06:30:46.244Z,4.00
2024-02-26T06:33:47.328Z,4.80
2024-02-26T06:36:48.186Z,4.00
2024-02-26T06:39:50.192Z,3.60
2024-02-26T06:42:52.187Z,5.50
2024-02-26T06:45:53.158Z,3.40
2024-02-26T06:48:56.000Z,3.80
2024-02-26T06:51:57.212Z,3.40
2024-02-26T06:54:59.225Z,4.30
2024-02-26T06:58:00.409Z,4.40
2024-02-26T07:01:01.335Z,4.00
2024-02-26T07:04:02.309Z,4.10
2024-02-26T07:07:03.379Z,4.10
2024-02-26T07:10:04.333Z,5.10
2024-02-26T07:13:05.223Z,4.20
2024-02-26T07:16:06.308Z,6.50
2024-02-26T07:19:07.414Z,5.20
2024-02-26T07:22:11.381Z,7.60
2024-02-26T07:25:12.279Z,6.20
2024-02-26T07:28:13.322Z,4.80
2024-02-26T07:31:14.273Z,4.20
2024-02-26T07:34:15.496Z,5.20
2024-02-26T07:37:16.328Z,4.90
2024-02-26T07:40:18.303Z,6.50
2024-02-26T07:43:19.304Z,4.50
2024-02-26T07:46:20.328Z,4.90
2024-02-26T07:49:21.509Z,4.30
2024-02-26T07:52:22.276Z,4.00
2024-02-26T07:55:23.417Z,4.10
2024-02-26T07:58:24.337Z,4.00
2024-02-26T08:01:28.398Z,6.00
2024-02-26T08:04:29.447Z,6.00
2024-02-26T08:07:30.399Z,4.40
2024-02-26T08:10:33.551Z,4.70
2024-02-26T08:16:37.221Z,3.70
2024-02-26T08:22:39.388Z,3.40
2024-02-26T08:25:40.362Z,3.90
2024-02-26T08:28:41.378Z,5.00
2024-02-26T08:31:45.521Z,4.20
2024-02-26T08:34:46.541Z,7.00
2024-02-26T08:37:47.428Z,4.10
2024-02-26T08:40:48.418Z,4.80
2024-02-26T08:43:49.444Z,6.20
2024-02-26T08:46:50.399Z,5.20
2024-02-26T08:49:51.474Z,3.30
2024-02-26T08:52:56.446Z,4.30
2024-02-26T08:55:57.456Z,3.40
2024-02-26T08:59:01.469Z,4.80
2024-02-26T09:02:02.465Z,3.10
2024-02-26T09:05:03.496Z,3.50
2024-02-26T09:08:04.581Z,3.30
2024-02-26T09:11:05.480Z,3.70
2024-02-26T09:14:06.493Z,3.30
2024-02-26T09:17:07.489Z,3.50
2024-02-26T09:20:08.509Z,4.00
2024-02-26T09:23:09.522Z,4.60
2024-02-26T09:26:10.875Z,4.30
2024-02-26T09:29:11.532Z,4.80
2024-02-26T09:32:13.619Z,3.70
2024-02-26T09:35:14.624Z,4.00
2024-02-26T09:38:15.511Z,4.40
2024-02-26T09:41:16.560Z,2.90
2024-02-26T09:44:19.539Z,3.90
2024-02-26T09:47:24.597Z,5.30
2024-02-26T09:50:30.537Z,4.20
2024-02-26T09:53:32.675Z,3.90
2024-02-26T09:56:34.595Z,3.70
2024-02-26T09:59:37.622Z,5.10
2024-02-26T10:02:40.609Z,4.60
2024-02-26T10:05:41.658Z,3.60
2024-02-26T10:08:43.705Z,3.50
2024-02-26T10:11:44.677Z,3.60
2024-02-26T10:14:45.661Z,4.10
2024-02-26T10:17:47.665Z,3.40
2024-02-26T10:20:48.690Z,4.10
2024-02-26T10:23:49.651Z,4.50
2024-02-26T10:26:50.668Z,6.00
2024-02-26T10:29:51.647Z,5.70
2024-02-26T10:32:53.754Z,4.90
2024-02-26T10:35:54.673Z,5.30
2024-02-26T10:38:56.723Z,5.70
2024-02-26T10:41:59.692Z,4.30
2024-02-26T10:45:00.742Z,5.00
2024-02-26T10:48:01.837Z,6.40
2024-02-26T10:51:03.722Z,6.70
2024-02-26T10:54:09.722Z,8.10
2024-02-26T10:57:11.717Z,5.40
2024-02-26T11:00:14.768Z,10.70
2024-02-26T11:03:17.748Z,7.10
2024-02-26T11:06:19.792Z,6.10
2024-02-26T11:09:22.755Z,4.00
2024-02-26T11:12:25.790Z,8.20
2024-02-26T11:15:26.773Z,5.90
2024-02-26T11:18:29.879Z,6.80
2024-02-26T11:21:47.729Z,6.30
2024-02-26T11:24:50.773Z,6.10
2024-02-26T11:27:57.232Z,7.30
2024-02-26T11:31:01.783Z,6.00
2024-02-26T11:34:03.000Z,9.70
2024-02-26T11:37:03.785Z,14.80
2024-02-26T11:40:06.902Z,9.20
2024-02-26T11:43:08.787Z,7.60
2024-02-26T11:46:10.791Z,7.40
2024-02-26T11:49:15.007Z,8.80
2024-02-26T11:52:20.868Z,14.00
2024-02-26T11:55:21.827Z,9.30
2024-02-26T11:58:22.815Z,9.60
2024-02-26T12:01:52.830Z,7.30
2024-02-26T12:04:53.897Z,7.20
2024-02-26T12:07:56.831Z,7.50
2024-02-26T12:10:57.864Z,7.50
2024-02-26T12:14:03.618Z,7.00
2024-02-26T12:17:06.917Z,8.40
2024-02-26T12:20:08.147Z,10.40
2024-02-26T12:23:08.883Z,10.20
2024-02-26T12:26:18.898Z,7.10
2024-02-26T12:29:19.914Z,6.30
2024-02-26T12:32:20.873Z,7.30
2024-02-26T12:35:22.088Z,9.10
2024-02-26T12:38:22.876Z,8.60
2024-02-26T12:41:23.903Z,9.40
2024-02-26T12:44:24.889Z,9.20
2024-02-26T12:47:26.918Z,9.00
2024-02-26T12:50:28.048Z,8.90
2024-02-26T12:53:28.927Z,8.50
2024-02-26T12:56:29.935Z,11.50
2024-02-26T12:59:30.954Z,9.00
2024-02-26T13:02:31.965Z,9.80
2024-02-26T13:05:35.068Z,18.50
2024-02-26T13:08:35.958Z,8.40
2024-02-26T13:11:36.979Z,6.30
2024-02-26T13:14:39.977Z,7.10
2024-02-26T13:17:41.023Z,7.70
2024-02-26T13:20:45.001Z,7.30
2024-02-26T13:23:46.024Z,10.10
2024-02-26T13:26:47.007Z,13.70
2024-02-26T13:29:48.017Z,10.50
2024-02-26T13:32:55.154Z,9.30
2024-02-26T13:35:56.092Z,8.00
2024-02-26T13:39:13.057Z,5.70
2024-02-26T13:42:14.062Z,4.70
2024-02-26T13:45:15.188Z,5.30
2024-02-26T13:48:21.227Z,4.90
2024-02-26T13:51:22.122Z,6.70
2024-02-26T13:54:23.126Z,7.10
2024-02-26T13:57:24.128Z,6.00
2024-02-26T14:00:25.111Z,8.50
2024-02-26T14:03:27.092Z,9.40
2024-02-26T14:06:28.186Z,15.10
2024-02-26T14:09:35.788Z,9.60
2024-02-26T14:12:45.105Z,7.20
2024-02-26T14:15:47.182Z,9.00
2024-02-26T14:18:49.289Z,16.90
2024-02-26T14:21:50.106Z,7.70
2024-02-26T14:24:44.107Z,10.80
2024-02-26T14:27:32.247Z,11.40
2024-02-26T14:30:33.228Z,10.60
2024-02-26T14:33:34.669Z,6.70
2024-02-26T14:36:37.151Z,7.40
2024-02-26T14:39:39.175Z,6.30
2024-02-26T14:42:40.180Z,5.80
2024-02-26T14:45:41.382Z,5.80
2024-02-26T14:48:42.284Z,5.10
2024-02-26T14:51:43.149Z,4.80
2024-02-26T14:54:46.206Z,4.50
2024-02-26T14:57:47.138Z,5.00
2024-02-26T15:00:48.282Z,7.10
2024-02-26T15:03:49.320Z,6.20
2024-02-26T15:06:53.283Z,6.20
2024-02-26T15:09:54.186Z,7.90
2024-02-26T15:12:55.201Z,9.90
2024-02-26T15:16:03.329Z,11.50
2024-02-26T15:19:04.311Z,12.30
2024-02-26T15:22:05.208Z,11.60
2024-02-26T15:25:06.270Z,9.10
2024-02-26T15:28:07.197Z,8.60
2024-02-26T15:31:08.777Z,8.80
2024-02-26T15:34:10.381Z,11.20
2024-02-26T15:37:14.030Z,9.90
2024-02-26T15:40:15.252Z,10.20
2024-02-26T15:43:16.260Z,10.60
2024-02-26T15:46:17.295Z,11.20
2024-02-26T15:49:18.358Z,13.40
2024-02-26T15:52:19.277Z,11.70
2024-02-26T15:55:22.359Z,10.20
2024-02-26T15:58:23.323Z,9.80
2024-02-26T16:01:26.098Z,10.70
2024-02-26T16:04:30.382Z,9.90
2024-02-26T16:10:38.326Z,7.50
2024-02-26T16:13:39.319Z,6.20
2024-02-26T16:16:43.375Z,7.90
2024-02-26T16:19:44.387Z,6.90
2024-02-26T16:22:45.348Z,6.20
2024-02-26T16:25:39.362Z,5.60
2024-02-26T16:28:29.348Z,5.30
2024-02-26T16:31:30.968Z,4.40
2024-02-26T16:34:32.432Z,6.60
2024-02-26T16:37:35.386Z,6.70
2024-02-26T16:40:36.387Z,10.70
2024-02-26T16:43:38.392Z,10.90
2024-02-26T16:46:39.401Z,10.90
2024-02-26T16:49:40.497Z,12.10
2024-02-26T16:52:34.928Z,9.90
2024-02-26T16:55:35.431Z,11.20
2024-02-26T16:58:36.417Z,13.00
2024-02-26T17:01:37.458Z,11.00
2024-02-26T17:04:38.521Z,10.80
2024-02-26T17:07:39.418Z,10.70
2024-02-26T17:10:40.463Z,8.70
2024-02-26T17:13:41.460Z,8.20
2024-02-26T17:16:44.422Z,8.00
2024-02-26T17:22:39.541Z,7.80
2024-02-26T17:25:40.455Z,8.10
2024-02-26T17:28:43.474Z,9.30
2024-02-26T17:34:50.578Z,13.70
2024-02-26T17:37:51.492Z,12.40
2024-02-26T17:40:52.490Z,11.20
2024-02-26T17:43:53.491Z,8.70
2024-02-26T17:46:54.500Z,11.50
2024-02-26T17:49:55.718Z,13.50
2024-02-26T17:52:57.576Z,9.20
2024-02-26T17:55:58.771Z,8.60
2024-02-26T17:58:59.514Z,10.70
2024-02-26T18:02:00.598Z,10.50
2024-02-26T18:05:01.588Z,9.60
2024-02-26T18:08:02.581Z,8.80
2024-02-26T18:11:03.618Z,16.40
2024-02-26T18:14:05.654Z,12.40
2024-02-26T18:17:06.572Z,10.80
2024-02-26T18:20:07.715Z,7.30
2024-02-26T18:23:08.588Z,8.20
2024-02-26T18:26:11.575Z,9.40
2024-02-26T18:32:14.589Z,7.60
2024-02-26T18:35:15.645Z,10.20
2024-02-26T18:38:16.600Z,11.80
2024-02-26T18:41:18.718Z,10.90
2024-02-26T18:44:19.626Z,10.80
2024-02-26T18:47:20.649Z,9.50
2024-02-26T18:50:14.732Z,10.60
2024-02-26T18:53:09.634Z,6.70
2024-02-26T18:56:10.659Z,6.30
2024-02-26T18:59:12.656Z,8.40
2024-02-26T19:02:13.661Z,9.80
2024-02-26T19:05:14.644Z,6.30
2024-02-26T19:08:16.709Z,6.60
2024-02-26T19:11:22.755Z,10.00
2024-02-26T19:14:23.692Z,10.70
2024-02-26T19:17:26.840Z,14.00
2024-02-26T19:23:28.690Z,7.30
2024-02-26T19:26:29.762Z,7.40
2024-02-26T19:29:30.715Z,7.10
2024-02-26T19:32:31.737Z,8.80
2024-02-26T19:35:32.710Z,8.20
2024-02-26T19:38:33.778Z,10.00
2024-02-26T19:41:34.714Z,10.50
2024-02-26T19:44:36.186Z,5.50
2024-02-26T19:47:36.766Z,6.70
2024-02-26T19:50:37.791Z,6.70
2024-02-26T19:53:38.756Z,5.90
2024-02-26T19:56:41.755Z,10.20
2024-02-26T20:02:44.878Z,5.60
2024-02-26T20:05:45.797Z,6.00
2024-02-26T20:08:46.779Z,7.00
2024-02-26T20:11:47.818Z,6.90
2024-02-26T20:14:48.773Z,6.50
2024-02-26T20:17:49.852Z,6.40
2024-02-26T20:20:50.836Z,7.10
2024-02-26T20:23:52.872Z,6.80
2024-02-26T20:26:56.904Z,7.70
2024-02-26T20:29:59.911Z,6.60
2024-02-26T20:36:01.869Z,6.10
2024-02-26T20:39:02.894Z,7.90
2024-02-26T20:42:03.924Z,7.00
2024-02-26T20:45:05.912Z,7.00
2024-02-26T20:48:06.954Z,7.20
2024-02-26T20:51:07.960Z,9.10
2024-02-26T20:54:08.873Z,7.50
2024-02-26T20:57:10.958Z,7.30
2024-02-26T21:00:13.953Z,7.70
2024-02-26T21:06:17.937Z,7.20
2024-02-26T21:09:18.948Z,8.20
2024-02-26T21:12:20.080Z,7.20
2024-02-26T21:15:14.234Z,7.70
2024-02-26T21:18:15.071Z,8.50
2024-02-26T21:21:18.959Z,10.10
2024-02-26T21:27:21.083Z,13.00
2024-02-26T21:30:23.017Z,12.80
2024-02-26T21:33:24.126Z,12.20
2024-02-26T21:36:25.998Z,12.30
2024-02-26T21:39:26.991Z,10.80
2024-02-26T21:42:28.026Z,8.50
2024-02-26T21:45:22.424Z,8.60
2024-02-26T21:48:16.035Z,9.50
2024-02-26T21:51:17.050Z,9.30
2024-02-26T21:54:18.096Z,9.90
2024-02-26T21:57:19.085Z,9.20
2024-02-26T22:00:20.026Z,9.00
2024-02-26T22:03:21.186Z,9.40
2024-02-26T22:06:22.091Z,7.50
2024-02-26T22:09:23.115Z,10.10
2024-02-26T22:12:25.086Z,8.20
2024-02-26T22:15:27.077Z,10.20
2024-02-26T22:18:28.202Z,10.30
2024-02-26T22:21:29.070Z,12.40
2024-02-26T22:24:30.099Z,13.80
2024-02-26T22:27:31.090Z,11.70
2024-02-26T22:30:32.092Z,11.70
2024-02-26T22:33:33.259Z,14.70
2024-02-26T22:36:34.136Z,11.50
2024-02-26T22:39:35.211Z,11.80
2024-02-26T22:42:36.273Z,13.50
2024-02-26T22:45:37.164Z,11.40
2024-02-26T22:48:39.332Z,11.70
2024-02-26T22:51:40.155Z,10.10
2024-02-26T22:54:41.177Z,10.60
2024-02-26T22:57:42.191Z,11.70
2024-02-26T23:00:43.277Z,10.80
2024-02-26T23:03:44.152Z,13.00
2024-02-26T23:06:45.307Z,13.20
2024-02-26T23:09:46.150Z,12.90
2024-02-26T23:12:47.131Z,13.10
2024-02-26T23:15:48.223Z,11.00
2024-02-26T23:18:49.253Z,11.80
2024-02-26T23:21:50.183Z,11.00
2024-02-26T23:24:51.176Z,14.40
2024-02-26T23:27:52.197Z,17.10
2024-02-26T23:30:53.184Z,16.10
2024-02-26T23:33:54.409Z,14.10
2024-02-26T23:36:55.197Z,15.80
2024-02-26T23:39:56.241Z,16.40
2024-02-26T23:42:58.299Z,17.80
2024-02-26T23:45:59.228Z,16.30
2024-02-26T23:49:00.259Z,15.80
2024-02-26T23:52:01.262Z,21.10
2024-02-26T23:55:02.236Z,16.70
2024-02-26T23:58:03.246Z,12.60
